createdAt,value
2023-04-23T00:01:28.157Z,14.66
2023-04-23T00:06:32.225Z,14.45
2023-04-23T00:11:36.180Z,14.24
2023-04-23T00:16:39.533Z,14.49
2023-04-23T00:21:41.177Z,14.45
2023-04-23T00:26:42.524Z,14.42
2023-04-23T00:31:46.794Z,14.38
2023-04-23T00:36:48.137Z,14.43
2023-04-23T00:41:49.692Z,14.37
2023-04-23T00:46:52.224Z,14.33
2023-04-23T00:51:53.637Z,14.33
2023-04-23T00:56:58.212Z,14.25
2023-04-23T01:02:00.454Z,14.27
2023-04-23T01:07:03.062Z,14.20
2023-04-23T01:12:06.635Z,14.02
2023-04-23T01:17:09.013Z,14.05
2023-04-23T01:22:13.070Z,14.12
2023-04-23T01:27:14.752Z,13.99
2023-04-23T01:32:17.049Z,14.00
2023-04-23T01:37:19.079Z,13.97
2023-04-23T01:42:20.679Z,13.99
2023-04-23T01:47:22.259Z,14.02
2023-04-23T01:52:23.697Z,14.03
2023-04-23T01:57:26.677Z,13.97
2023-04-23T02:02:28.392Z,13.94
2023-04-23T02:07:31.380Z,13.92
2023-04-23T02:12:33.211Z,13.78
2023-04-23T02:17:35.406Z,13.72
2023-04-23T02:22:41.770Z,13.77
2023-04-23T02:27:43.278Z,13.77
2023-04-23T02:32:44.824Z,13.74
2023-04-23T02:37:46.578Z,13.61
2023-04-23T02:42:49.326Z,13.54
2023-04-23T02:47:51.961Z,13.65
2023-04-23T02:52:53.595Z,13.65
2023-04-23T02:57:55.189Z,13.64
2023-04-23T03:02:56.973Z,13.74
2023-04-23T03:07:59.181Z,13.54
2023-04-23T03:13:00.899Z,13.73
2023-04-23T03:18:04.707Z,13.69
2023-04-23T03:23:09.316Z,13.63
2023-04-23T03:28:11.124Z,13.64
2023-04-23T03:33:12.525Z,13.71
2023-04-23T03:38:14.185Z,13.69
2023-04-23T03:43:17.150Z,13.64
2023-04-23T03:48:18.597Z,13.58
2023-04-23T03:53:20.386Z,13.64
2023-04-23T03:58:21.889Z,13.54
2023-04-23T04:03:23.406Z,13.51
2023-04-23T04:08:26.563Z,13.47
2023-04-23T04:13:28.471Z,13.42
2023-04-23T04:18:30.740Z,13.46
2023-04-23T04:23:33.750Z,13.43
2023-04-23T04:28:37.262Z,13.44
2023-04-23T04:33:39.791Z,13.46
2023-04-23T04:38:41.733Z,13.46
2023-04-23T04:43:45.205Z,13.36
2023-04-23T04:48:47.552Z,13.44
2023-04-23T04:53:49.137Z,13.43
2023-04-23T04:58:52.523Z,13.38
2023-04-23T05:03:54.211Z,13.34
2023-04-23T05:08:56.036Z,13.32
2023-04-23T05:13:57.468Z,13.27
2023-04-23T05:18:58.956Z,13.28
2023-04-23T05:24:01.409Z,13.35
2023-04-23T05:29:02.847Z,13.40
2023-04-23T05:34:04.282Z,13.41
2023-04-23T05:39:05.784Z,13.34
2023-04-23T05:44:07.517Z,13.41
2023-04-23T05:49:09.836Z,13.39
2023-04-23T05:54:11.471Z,13.35
2023-04-23T05:59:12.808Z,13.49
2023-04-23T06:04:15.684Z,13.61
2023-04-23T06:09:18.651Z,13.62
2023-04-23T06:14:20.844Z,13.65
2023-04-23T06:19:25.029Z,13.72
2023-04-23T06:24:26.650Z,13.91
2023-04-23T06:29:28.865Z,14.05
2023-04-23T06:34:30.564Z,14.01
2023-04-23T06:39:31.949Z,14.22
2023-04-23T06:44:34.397Z,14.46
2023-04-23T06:49:36.081Z,14.66
2023-04-23T06:54:37.487Z,14.47
2023-04-23T06:59:39.177Z,14.53
2023-04-23T07:04:41.771Z,14.61
2023-04-23T07:09:43.874Z,14.58
2023-04-23T07:14:46.509Z,14.60
2023-04-23T07:19:48.031Z,14.76
2023-04-23T07:24:49.855Z,14.88
2023-04-23T07:29:51.446Z,14.90
2023-04-23T07:34:52.875Z,15.09
2023-04-23T07:39:54.234Z,15.14
2023-04-23T07:44:55.915Z,15.31
2023-04-23T07:49:57.761Z,15.43
2023-04-23T07:54:59.187Z,15.74
2023-04-23T08:00:00.953Z,15.70
2023-04-23T08:05:02.442Z,15.83
2023-04-23T08:10:06.156Z,16.28
2023-04-23T08:15:08.331Z,16.31
2023-04-23T08:20:10.478Z,16.58
2023-04-23T08:25:13.256Z,17.03
2023-04-23T08:30:14.876Z,17.33
2023-04-23T08:35:16.384Z,17.46
2023-04-23T08:40:17.836Z,17.23
2023-04-23T08:45:19.945Z,17.26
2023-04-23T08:50:21.387Z,17.34
2023-04-23T08:55:23.818Z,17.36
2023-04-23T09:00:26.047Z,17.38
2023-04-23T09:05:28.458Z,17.62
2023-04-23T09:10:29.853Z,17.59
2023-04-23T09:15:31.583Z,17.41
2023-04-23T09:20:33.197Z,17.92
2023-04-23T09:25:34.596Z,18.54
2023-04-23T09:30:43.507Z,18.34
2023-04-23T09:35:48.783Z,18.24
2023-04-23T09:40:50.852Z,18.54
2023-04-23T09:45:53.404Z,19.03
2023-04-23T09:50:55.715Z,19.40
2023-04-23T09:55:57.457Z,19.75
2023-04-23T10:01:09.273Z,19.05
2023-04-23T10:06:30.558Z,18.48
2023-04-23T10:11:37.206Z,18.50
2023-04-23T10:16:48.616Z,19.11
2023-04-23T10:22:08.550Z,19.29
2023-04-23T10:32:28.039Z,19.55
2023-04-23T10:37:30.112Z,19.28
2023-04-23T10:42:31.825Z,19.63
2023-04-23T10:47:33.324Z,19.60
2023-04-23T10:52:35.535Z,19.99
2023-04-23T10:58:00.775Z,20.52
2023-04-23T11:03:02.972Z,19.85
2023-04-23T11:13:22.189Z,19.54
2023-04-23T11:18:23.917Z,21.12
2023-04-23T11:23:33.036Z,21.79
2023-04-23T11:28:36.904Z,20.90
2023-04-23T11:33:38.955Z,20.09
2023-04-23T11:38:41.441Z,19.85
2023-04-23T11:43:43.681Z,19.61
2023-04-23T11:48:45.330Z,19.96
2023-04-23T11:53:48.620Z,20.36
2023-04-23T11:58:59.877Z,21.01
2023-04-23T12:04:09.810Z,20.51
2023-04-23T12:09:13.155Z,20.13
2023-04-23T12:14:16.400Z,20.11
2023-04-23T12:19:20.811Z,20.10
2023-04-23T12:24:23.833Z,20.04
2023-04-23T12:29:26.652Z,20.29
2023-04-23T12:34:28.106Z,20.29
2023-04-23T12:39:32.402Z,20.21
2023-04-23T12:44:37.560Z,20.73
2023-04-23T12:49:40.689Z,20.99
2023-04-23T12:54:44.611Z,20.69
2023-04-23T12:59:46.166Z,20.44
2023-04-23T13:04:47.608Z,20.65
2023-04-23T13:09:48.952Z,20.91
2023-04-23T13:14:50.382Z,21.22
2023-04-23T13:19:53.288Z,21.26
2023-04-23T13:24:57.176Z,21.20
2023-04-23T13:29:58.836Z,21.24
2023-04-23T13:35:03.137Z,21.54
2023-04-23T13:40:05.912Z,21.42
2023-04-23T13:45:08.128Z,21.53
2023-04-23T13:50:10.316Z,21.86
2023-04-23T13:55:11.792Z,21.99
2023-04-23T14:00:14.216Z,21.68
2023-04-23T14:05:15.703Z,21.36
2023-04-23T14:10:18.077Z,21.32
2023-04-23T14:15:20.120Z,21.23
2023-04-23T14:20:21.651Z,21.35
2023-04-23T14:25:34.357Z,21.31
2023-04-23T14:30:35.970Z,21.28
2023-04-23T14:35:43.501Z,21.04
2023-04-23T14:40:45.122Z,21.16
2023-04-23T14:45:47.127Z,20.74
2023-04-23T14:50:48.618Z,20.82
2023-04-23T14:55:49.954Z,20.75
2023-04-23T15:00:51.362Z,20.70
2023-04-23T15:05:53.015Z,20.43
2023-04-23T15:10:54.464Z,20.40
2023-04-23T15:16:00.100Z,20.28
2023-04-23T15:21:04.781Z,20.23
2023-04-23T15:26:06.276Z,20.18
2023-04-23T15:31:08.210Z,20.01
2023-04-23T15:36:10.535Z,20.03
2023-04-23T15:41:12.926Z,19.84
2023-04-23T15:46:14.675Z,19.53
2023-04-23T15:51:16.430Z,19.89
2023-04-23T15:56:17.884Z,19.81
2023-04-23T16:01:20.041Z,19.68
2023-04-23T16:06:21.726Z,19.64
2023-04-23T16:11:25.215Z,19.59
2023-04-23T16:16:26.925Z,19.55
2023-04-23T16:21:28.743Z,19.40
2023-04-23T16:26:30.269Z,19.31
2023-04-23T16:31:32.158Z,19.24
2023-04-23T16:36:33.831Z,19.25
2023-04-23T16:41:35.310Z,18.92
2023-04-23T16:46:37.392Z,17.91
2023-04-23T16:51:39.002Z,17.81
2023-04-23T16:56:42.219Z,17.59
2023-04-23T17:01:43.770Z,17.36
2023-04-23T17:06:45.877Z,17.29
2023-04-23T17:11:47.393Z,17.26
2023-04-23T17:16:51.479Z,17.11
2023-04-23T17:21:52.974Z,17.05
2023-04-23T17:26:54.444Z,17.12
2023-04-23T17:31:56.255Z,17.05
2023-04-23T17:36:57.677Z,17.01
2023-04-23T17:41:59.236Z,17.01
2023-04-23T17:47:01.950Z,16.99
2023-04-23T17:52:03.493Z,16.94
2023-04-23T17:57:06.666Z,16.82
2023-04-23T18:02:08.684Z,16.77
2023-04-23T18:07:10.878Z,16.73
2023-04-23T18:12:12.354Z,16.50
2023-04-23T18:17:17.629Z,16.49
2023-04-23T18:22:19.415Z,16.38
2023-04-23T18:27:20.794Z,16.18
2023-04-23T18:32:31.566Z,16.06
2023-04-23T18:37:53.005Z,16.00
2023-04-23T18:42:54.747Z,15.99
2023-04-23T18:48:03.282Z,15.86
2023-04-23T18:53:05.440Z,15.68
2023-04-23T18:58:08.172Z,15.74
2023-04-23T19:03:23.703Z,15.67
2023-04-23T19:08:30.913Z,15.60
2023-04-23T19:13:32.576Z,15.53
2023-04-23T19:18:34.015Z,15.52
2023-04-23T19:23:36.766Z,15.54
2023-04-23T19:28:40.025Z,15.35
2023-04-23T19:33:45.355Z,15.44
2023-04-23T19:38:46.702Z,15.40
2023-04-23T19:43:48.183Z,15.45
2023-04-23T19:48:49.575Z,15.34
2023-04-23T19:53:51.279Z,15.36
2023-04-23T19:58:52.892Z,15.23
2023-04-23T20:03:55.516Z,15.16
2023-04-23T20:09:15.943Z,15.07
2023-04-23T20:14:17.984Z,15.01
2023-04-23T20:19:19.457Z,14.95
2023-04-23T20:24:23.608Z,14.87
2023-04-23T20:29:25.127Z,14.82
2023-04-23T20:34:27.322Z,14.85
2023-04-23T20:39:29.476Z,14.81
2023-04-23T20:44:31.906Z,14.72
2023-04-23T20:49:33.559Z,14.77
2023-04-23T20:54:36.602Z,14.70
2023-04-23T20:59:38.202Z,14.71
2023-04-23T21:04:40.127Z,14.60
2023-04-23T21:09:42.057Z,14.60
2023-04-23T21:14:43.934Z,14.48
2023-04-23T21:19:45.938Z,14.50
2023-04-23T21:24:47.555Z,14.42
2023-04-23T21:29:51.069Z,14.40
2023-04-23T21:34:52.573Z,14.40
2023-04-23T21:39:54.097Z,14.46
2023-04-23T21:44:55.449Z,14.44
2023-04-23T21:49:57.629Z,14.39
2023-04-23T21:54:59.057Z,14.40
2023-04-23T22:00:00.632Z,14.27
2023-04-23T22:05:02.021Z,14.28
2023-04-23T22:10:03.907Z,14.29
2023-04-23T22:15:06.937Z,14.28
2023-04-23T22:20:10.553Z,14.25
2023-04-23T22:25:13.012Z,14.24
2023-04-23T22:30:15.873Z,14.27
2023-04-23T22:35:17.321Z,14.20
2023-04-23T22:40:19.171Z,14.10
2023-04-23T22:45:20.719Z,14.05
2023-04-23T22:50:23.302Z,13.98
2023-04-23T22:55:24.734Z,14.11
2023-04-23T23:00:26.439Z,13.97
2023-04-23T23:05:27.872Z,13.95
2023-04-23T23:10:29.744Z,13.87
2023-04-23T23:15:31.358Z,13.88
2023-04-23T23:20:32.837Z,13.76
2023-04-23T23:25:38.177Z,13.67
2023-04-23T23:30:39.685Z,13.69
2023-04-23T23:35:42.631Z,13.75
2023-04-23T23:40:45.127Z,13.70
2023-04-23T23:45:46.608Z,13.62
2023-04-23T23:50:48.060Z,13.65
2023-04-23T23:55:49.897Z,13.65
